sensor_id;sensor_type;location;lat;lon;timestamp;pressure;altitude;pressure_sealevel;temperature;humidity
19736;BME280;32064;49.310;8.646;2023-01-30T00:02:01;101331.00;;;2.20;69.17
19736;BME280;32064;49.310;8.646;2023-01-30T00:04:32;101337.88;;;2.22;69.87
19736;BME280;32064;49.310;8.646;2023-01-30T00:07:00;101347.34;;;2.25;68.90
19736;BME280;32064;49.310;8.646;2023-01-30T00:09:25;101351.69;;;2.24;69.60
19736;BME280;32064;49.310;8.646;2023-01-30T00:11:51;101354.22;;;2.26;70.53
19736;BME280;32064;49.310;8.646;2023-01-30T00:14:28;101358.50;;;2.30;69.35
19736;BME280;32064;49.310;8.646;2023-01-30T00:16:53;101364.44;;;2.35;69.74
19736;BME280;32064;49.310;8.646;2023-01-30T00:19:28;101370.50;;;2.34;69.33
19736;BME280;32064;49.310;8.646;2023-01-30T00:21:53;101372.19;;;2.37;69.89
19736;BME280;32064;49.310;8.646;2023-01-30T00:24:18;101371.28;;;2.39;69.32
19736;BME280;32064;49.310;8.646;2023-01-30T00:26:44;101373.88;;;2.39;70.10
19736;BME280;32064;49.310;8.646;2023-01-30T00:29:09;101362.63;;;2.39;69.97
19736;BME280;32064;49.310;8.646;2023-01-30T00:31:34;101351.28;;;2.44;70.30
19736;BME280;32064;49.310;8.646;2023-01-30T00:34:00;101344.97;;;2.55;70.15
19736;BME280;32064;49.310;8.646;2023-01-30T00:36:25;101333.59;;;2.60;70.16
19736;BME280;32064;49.310;8.646;2023-01-30T00:38:50;101336.09;;;2.65;70.09
19736;BME280;32064;49.310;8.646;2023-01-30T00:41:16;101332.59;;;2.67;70.27
19736;BME280;32064;49.310;8.646;2023-01-30T00:43:43;101318.47;;;2.79;69.97
19736;BME280;32064;49.310;8.646;2023-01-30T00:46:31;101309.84;;;2.77;70.22
19736;BME280;32064;49.310;8.646;2023-01-30T00:49:16;101316.63;;;2.84;70.20
19736;BME280;32064;49.310;8.646;2023-01-30T00:51:41;101315.69;;;2.87;70.11
19736;BME280;32064;49.310;8.646;2023-01-30T00:54:07;101319.06;;;2.90;70.63
19736;BME280;32064;49.310;8.646;2023-01-30T00:56:32;101305.94;;;2.97;70.48
19736;BME280;32064;49.310;8.646;2023-01-30T00:58:58;101313.25;;;2.81;70.58
19736;BME280;32064;49.310;8.646;2023-01-30T01:01:23;101311.19;;;2.93;71.03
19736;BME280;32064;49.310;8.646;2023-01-30T01:03:49;101295.34;;;3.06;69.83
19736;BME280;32064;49.310;8.646;2023-01-30T01:06:15;101297.84;;;3.09;70.75
19736;BME280;32064;49.310;8.646;2023-01-30T01:08:40;101292.50;;;3.15;69.86
19736;BME280;32064;49.310;8.646;2023-01-30T01:11:05;101284.66;;;3.17;69.82
19736;BME280;32064;49.310;8.646;2023-01-30T01:13:31;101282.13;;;3.13;70.32
19736;BME280;32064;49.310;8.646;2023-01-30T01:15:57;101276.75;;;3.21;69.95
19736;BME280;32064;49.310;8.646;2023-01-30T01:18:23;101270.78;;;3.16;69.69
19736;BME280;32064;49.310;8.646;2023-01-30T01:20:48;101264.66;;;3.20;70.36
19736;BME280;32064;49.310;8.646;2023-01-30T01:23:13;101268.88;;;3.23;69.94
19736;BME280;32064;49.310;8.646;2023-01-30T01:25:39;101276.56;;;3.27;69.93
19736;BME280;32064;49.310;8.646;2023-01-30T01:28:04;101265.16;;;3.34;69.17
19736;BME280;32064;49.310;8.646;2023-01-30T01:30:30;101246.00;;;3.37;68.97
19736;BME280;32064;49.310;8.646;2023-01-30T01:32:55;101219.84;;;3.42;69.67
19736;BME280;32064;49.310;8.646;2023-01-30T01:35:21;101239.84;;;3.40;70.25
19736;BME280;32064;49.310;8.646;2023-01-30T01:37:54;101249.53;;;3.34;70.06
19736;BME280;32064;49.310;8.646;2023-01-30T01:40:21;101251.03;;;3.43;68.83
19736;BME280;32064;49.310;8.646;2023-01-30T01:43:20;101230.25;;;3.42;69.54
19736;BME280;32064;49.310;8.646;2023-01-30T01:45:48;101215.59;;;3.39;69.60
19736;BME280;32064;49.310;8.646;2023-01-30T01:48:21;101233.06;;;3.34;69.17
19736;BME280;32064;49.310;8.646;2023-01-30T01:50:55;101244.28;;;3.36;68.92
19736;BME280;32064;49.310;8.646;2023-01-30T01:53:25;101243.47;;;3.34;68.73
19736;BME280;32064;49.310;8.646;2023-01-30T01:55:53;101235.63;;;3.35;69.46
19736;BME280;32064;49.310;8.646;2023-01-30T01:58:36;101211.19;;;3.43;69.86
19736;BME280;32064;49.310;8.646;2023-01-30T02:01:03;101205.09;;;3.42;68.95
19736;BME280;32064;49.310;8.646;2023-01-30T02:03:34;101191.22;;;3.43;70.00
19736;BME280;32064;49.310;8.646;2023-01-30T02:06:02;101193.75;;;3.46;69.70
19736;BME280;32064;49.310;8.646;2023-01-30T02:08:38;101195.31;;;3.52;68.54
19736;BME280;32064;49.310;8.646;2023-01-30T02:11:15;101197.72;;;3.59;68.84
19736;BME280;32064;49.310;8.646;2023-01-30T02:13:44;101198.56;;;3.60;69.32
19736;BME280;32064;49.310;8.646;2023-01-30T02:16:10;101193.28;;;3.62;68.53
19736;BME280;32064;49.310;8.646;2023-01-30T02:18:38;101184.56;;;3.64;68.61
19736;BME280;32064;49.310;8.646;2023-01-30T02:27:01;101174.13;;;3.66;68.55
19736;BME280;32064;49.310;8.646;2023-01-30T02:35:30;101142.44;;;3.51;68.38
19736;BME280;32064;49.310;8.646;2023-01-30T02:38:06;101143.28;;;3.52;68.12
19736;BME280;32064;49.310;8.646;2023-01-30T02:40:55;101150.16;;;3.54;67.78
19736;BME280;32064;49.310;8.646;2023-01-30T02:43:43;101143.31;;;3.50;68.50
19736;BME280;32064;49.310;8.646;2023-01-30T02:46:17;101163.06;;;3.57;68.64
19736;BME280;32064;49.310;8.646;2023-01-30T02:51:24;101157.81;;;3.59;67.62
19736;BME280;32064;49.310;8.646;2023-01-30T02:53:52;101141.34;;;3.60;67.54
19736;BME280;32064;49.310;8.646;2023-01-30T02:56:18;101122.22;;;3.61;67.70
19736;BME280;32064;49.310;8.646;2023-01-30T02:58:49;101131.03;;;3.57;68.68
19736;BME280;32064;49.310;8.646;2023-01-30T03:10:04;101175.94;;;3.62;67.40
19736;BME280;32064;49.310;8.646;2023-01-30T03:12:51;101177.84;;;3.57;68.72
19736;BME280;32064;49.310;8.646;2023-01-30T03:15:43;101187.44;;;3.55;68.30
19736;BME280;32064;49.310;8.646;2023-01-30T03:18:10;101178.53;;;3.62;68.58
19736;BME280;32064;49.310;8.646;2023-01-30T03:20:37;101180.16;;;3.66;67.60
19736;BME280;32064;49.310;8.646;2023-01-30T03:23:03;101185.22;;;3.71;68.34
19736;BME280;32064;49.310;8.646;2023-01-30T03:25:30;101179.06;;;3.73;66.96
19736;BME280;32064;49.310;8.646;2023-01-30T03:27:56;101176.38;;;3.76;67.71
19736;BME280;32064;49.310;8.646;2023-01-30T03:30:26;101183.41;;;3.74;67.26
19736;BME280;32064;49.310;8.646;2023-01-30T03:32:51;101185.91;;;3.77;68.58
19736;BME280;32064;49.310;8.646;2023-01-30T03:35:17;101181.59;;;3.76;67.72
19736;BME280;32064;49.310;8.646;2023-01-30T03:37:45;101183.44;;;3.73;67.94
19736;BME280;32064;49.310;8.646;2023-01-30T03:40:13;101182.56;;;3.74;68.37
19736;BME280;32064;49.310;8.646;2023-01-30T03:42:39;101182.56;;;3.74;67.44
19736;BME280;32064;49.310;8.646;2023-01-30T03:45:05;101176.44;;;3.75;67.10
19736;BME280;32064;49.310;8.646;2023-01-30T03:47:30;101185.06;;;3.77;67.95
19736;BME280;32064;49.310;8.646;2023-01-30T03:49:55;101178.97;;;3.76;67.14
19736;BME280;32064;49.310;8.646;2023-01-30T03:52:21;101181.75;;;3.72;68.75
19736;BME280;32064;49.310;8.646;2023-01-30T03:54:46;101178.31;;;3.70;68.48
19736;BME280;32064;49.310;8.646;2023-01-30T03:57:11;101177.47;;;3.69;67.66
19736;BME280;32064;49.310;8.646;2023-01-30T03:59:37;101183.59;;;3.68;67.98
19736;BME280;32064;49.310;8.646;2023-01-30T04:02:02;101179.13;;;3.72;68.37
19736;BME280;32064;49.310;8.646;2023-01-30T04:04:28;101179.31;;;3.66;68.12
19736;BME280;32064;49.310;8.646;2023-01-30T04:06:53;101173.22;;;3.67;68.44
19736;BME280;32064;49.310;8.646;2023-01-30T04:09:19;101186.34;;;3.62;69.00
19736;BME280;32064;49.310;8.646;2023-01-30T04:11:44;101181.03;;;3.65;68.83
19736;BME280;32064;49.310;8.646;2023-01-30T04:14:10;101177.56;;;3.66;67.91
19736;BME280;32064;49.310;8.646;2023-01-30T04:16:35;101175.78;;;3.68;68.04
19736;BME280;32064;49.310;8.646;2023-01-30T04:19:01;101187.78;;;3.72;67.58
19736;BME280;32064;49.310;8.646;2023-01-30T04:21:26;101185.47;;;3.63;67.90
19736;BME280;32064;49.310;8.646;2023-01-30T04:23:51;101179.13;;;3.72;68.11
19736;BME280;32064;49.310;8.646;2023-01-30T04:26:17;101167.69;;;3.77;67.33
19736;BME280;32064;49.310;8.646;2023-01-30T04:28:42;101177.28;;;3.75;68.59
19736;BME280;32064;49.310;8.646;2023-01-30T04:31:09;101161.75;;;3.74;67.71
19736;BME280;32064;49.310;8.646;2023-01-30T04:33:35;101154.72;;;3.76;69.28
19736;BME280;32064;49.310;8.646;2023-01-30T04:36:01;101151.59;;;3.65;69.50
19736;BME280;32064;49.310;8.646;2023-01-30T04:38:28;101138.56;;;3.65;68.37
19736;BME280;32064;49.310;8.646;2023-01-30T04:40:56;101136.69;;;3.70;67.68
19736;BME280;32064;49.310;8.646;2023-01-30T04:43:23;101128.66;;;3.77;69.03
19736;BME280;32064;49.310;8.646;2023-01-30T04:45:50;101128.78;;;3.73;68.84
19736;BME280;32064;49.310;8.646;2023-01-30T04:48:17;101122.84;;;3.69;68.30
19736;BME280;32064;49.310;8.646;2023-01-30T04:50:44;101111.50;;;3.72;69.24
19736;BME280;32064;49.310;8.646;2023-01-30T04:53:11;101109.03;;;3.67;68.42
19736;BME280;32064;49.310;8.646;2023-01-30T04:55:37;101100.19;;;3.73;68.23
19736;BME280;32064;49.310;8.646;2023-01-30T04:58:05;101107.78;;;3.79;68.52
19736;BME280;32064;49.310;8.646;2023-01-30T05:00:31;101099.13;;;3.78;67.71
19736;BME280;32064;49.310;8.646;2023-01-30T05:02:56;101105.25;;;3.77;68.88
19736;BME280;32064;49.310;8.646;2023-01-30T05:05:23;101105.44;;;3.71;67.74
19736;BME280;32064;49.310;8.646;2023-01-30T05:07:49;101114.03;;;3.73;69.21
19736;BME280;32064;49.310;8.646;2023-01-30T05:10:15;101111.31;;;3.78;68.99
19736;BME280;32064;49.310;8.646;2023-01-30T05:12:40;101107.63;;;3.85;69.05
19736;BME280;32064;49.310;8.646;2023-01-30T05:15:06;101106.00;;;3.81;68.76
19736;BME280;32064;49.310;8.646;2023-01-30T05:17:32;101097.47;;;3.76;68.64
19736;BME280;32064;49.310;8.646;2023-01-30T05:19:58;101092.25;;;3.77;68.53
19736;BME280;32064;49.310;8.646;2023-01-30T05:22:23;101095.38;;;3.89;68.48
19736;BME280;32064;49.310;8.646;2023-01-30T05:24:50;101086.75;;;3.87;69.68
19736;BME280;32064;49.310;8.646;2023-01-30T05:27:15;101087.66;;;3.86;69.02
19736;BME280;32064;49.310;8.646;2023-01-30T05:29:41;101071.22;;;3.83;69.12
19736;BME280;32064;49.310;8.646;2023-01-30T05:32:06;101067.69;;;3.86;68.45
19736;BME280;32064;49.310;8.646;2023-01-30T05:34:32;101077.03;;;3.92;69.77
19736;BME280;32064;49.310;8.646;2023-01-30T05:36:57;101088.38;;;3.91;68.39
19736;BME280;32064;49.310;8.646;2023-01-30T05:39:23;101089.25;;;3.90;68.81
19736;BME280;32064;49.310;8.646;2023-01-30T05:41:48;101088.38;;;3.91;68.36
19736;BME280;32064;49.310;8.646;2023-01-30T05:44:13;101079.00;;;3.85;69.39
19736;BME280;32064;49.310;8.646;2023-01-30T05:46:39;101076.25;;;3.90;69.51
19736;BME280;32064;49.310;8.646;2023-01-30T05:49:04;101081.31;;;3.94;68.52
19736;BME280;32064;49.310;8.646;2023-01-30T05:51:37;101085.78;;;3.91;68.24
19736;BME280;32064;49.310;8.646;2023-01-30T05:54:03;101085.50;;;3.98;69.83
19736;BME280;32064;49.310;8.646;2023-01-30T05:56:28;101101.91;;;4.02;69.32
19736;BME280;32064;49.310;8.646;2023-01-30T05:58:58;101092.22;;;4.05;68.66
19736;BME280;32064;49.310;8.646;2023-01-30T06:01:25;101101.00;;;4.03;69.14
19736;BME280;32064;49.310;8.646;2023-01-30T06:03:50;101089.56;;;4.07;68.69
19736;BME280;32064;49.310;8.646;2023-01-30T06:06:16;101096.75;;;3.99;69.21
19736;BME280;32064;49.310;8.646;2023-01-30T06:08:42;101095.78;;;4.03;69.31
19736;BME280;32064;49.310;8.646;2023-01-30T06:11:11;101091.56;;;3.99;69.32
19736;BME280;32064;49.310;8.646;2023-01-30T06:13:39;101092.22;;;4.05;69.43
19736;BME280;32064;49.310;8.646;2023-01-30T06:16:06;101088.81;;;4.03;70.32
19736;BME280;32064;49.310;8.646;2023-01-30T06:18:32;101089.84;;;3.99;69.55
19736;BME280;32064;49.310;8.646;2023-01-30T06:20:58;101088.81;;;4.03;69.95
19736;BME280;32064;49.310;8.646;2023-01-30T06:23:23;101087.88;;;4.06;70.09
19736;BME280;32064;49.310;8.646;2023-01-30T06:25:49;101076.44;;;4.10;69.31
19736;BME280;32064;49.310;8.646;2023-01-30T06:28:16;101083.84;;;3.96;69.91
19736;BME280;32064;49.310;8.646;2023-01-30T06:30:42;101089.63;;;4.05;69.57
19736;BME280;32064;49.310;8.646;2023-01-30T06:33:08;101079.34;;;4.01;71.10
19736;BME280;32064;49.310;8.646;2023-01-30T06:35:33;101070.56;;;4.05;70.45
19736;BME280;32064;49.310;8.646;2023-01-30T06:37:59;101075.09;;;3.98;70.72
19736;BME280;32064;49.310;8.646;2023-01-30T06:40:24;101076.09;;;3.94;70.78
19736;BME280;32064;49.310;8.646;2023-01-30T06:42:49;101071.88;;;3.90;71.12
19736;BME280;32064;49.310;8.646;2023-01-30T06:45:17;101076.13;;;3.93;71.03
19736;BME280;32064;49.310;8.646;2023-01-30T06:47:50;101076.91;;;3.96;70.41
19736;BME280;32064;49.310;8.646;2023-01-30T06:50:18;101102.75;;;4.02;71.96
19736;BME280;32064;49.310;8.646;2023-01-30T06:52:45;101106.81;;;4.11;71.34
19736;BME280;32064;49.310;8.646;2023-01-30T06:55:13;101104.94;;;4.15;71.36
19736;BME280;32064;49.310;8.646;2023-01-30T06:57:40;101112.78;;;4.13;72.02
19736;BME280;32064;49.310;8.646;2023-01-30T07:00:10;101123.22;;;4.13;71.63
19736;BME280;32064;49.310;8.646;2023-01-30T07:02:36;101122.22;;;4.17;70.97
19736;BME280;32064;49.310;8.646;2023-01-30T07:05:02;101099.72;;;4.16;71.73
19736;BME280;32064;49.310;8.646;2023-01-30T07:07:29;101101.50;;;4.14;71.78
19736;BME280;32064;49.310;8.646;2023-01-30T07:09:55;101091.09;;;4.14;71.76
19736;BME280;32064;49.310;8.646;2023-01-30T07:12:21;101089.53;;;4.09;72.15
19736;BME280;32064;49.310;8.646;2023-01-30T07:14:49;101072.25;;;4.06;72.23
19736;BME280;32064;49.310;8.646;2023-01-30T07:17:15;101062.69;;;4.07;72.50
19736;BME280;32064;49.310;8.646;2023-01-30T07:19:44;101056.63;;;4.06;72.25
19736;BME280;32064;49.310;8.646;2023-01-30T07:22:09;101063.50;;;4.09;72.05
19736;BME280;32064;49.310;8.646;2023-01-30T07:24:35;101040.31;;;4.01;71.81
19736;BME280;32064;49.310;8.646;2023-01-30T07:27:00;101046.09;;;4.11;71.42
19736;BME280;32064;49.310;8.646;2023-01-30T07:29:26;101036.81;;;4.02;72.57
19736;BME280;32064;49.310;8.646;2023-01-30T07:31:51;101026.41;;;4.02;72.99
19736;BME280;32064;49.310;8.646;2023-01-30T07:34:17;101016.25;;;3.94;73.24
19736;BME280;32064;49.310;8.646;2023-01-30T07:36:42;101016.94;;;3.99;73.22
19736;BME280;32064;49.310;8.646;2023-01-30T07:39:08;100992.63;;;4.00;72.89
19736;BME280;32064;49.310;8.646;2023-01-30T07:41:34;101015.28;;;3.97;72.66
19736;BME280;32064;49.310;8.646;2023-01-30T07:44:00;101023.75;;;4.03;73.38
19736;BME280;32064;49.310;8.646;2023-01-30T07:46:26;101021.97;;;4.04;73.24
19736;BME280;32064;49.310;8.646;2023-01-30T07:48:52;101035.94;;;4.01;73.49
19736;BME280;32064;49.310;8.646;2023-01-30T07:51:18;101040.06;;;4.09;72.67
19736;BME280;32064;49.310;8.646;2023-01-30T07:53:43;101057.44;;;4.08;73.19
19736;BME280;32064;49.310;8.646;2023-01-30T07:56:09;101049.44;;;4.14;72.33
19736;BME280;32064;49.310;8.646;2023-01-30T07:58:38;101018.44;;;4.07;73.71
19736;BME280;32064;49.310;8.646;2023-01-30T08:01:04;101010.59;;;4.08;73.37
19736;BME280;32064;49.310;8.646;2023-01-30T08:03:30;101023.72;;;4.05;72.54
19736;BME280;32064;49.310;8.646;2023-01-30T08:05:55;101003.66;;;4.07;73.35
19736;BME280;32064;49.310;8.646;2023-01-30T08:08:21;101008.03;;;4.07;73.19
19736;BME280;32064;49.310;8.646;2023-01-30T08:10:49;101001.66;;;4.15;73.04
19736;BME280;32064;49.310;8.646;2023-01-30T08:13:15;101001.75;;;4.12;72.46
19736;BME280;32064;49.310;8.646;2023-01-30T08:15:40;101014.75;;;4.14;73.67
19736;BME280;32064;49.310;8.646;2023-01-30T08:18:06;101029.59;;;4.10;72.87
19736;BME280;32064;49.310;8.646;2023-01-30T08:20:32;101026.81;;;4.16;73.84
19736;BME280;32064;49.310;8.646;2023-01-30T08:22:58;101024.25;;;4.15;72.53
19736;BME280;32064;49.310;8.646;2023-01-30T08:25:24;101023.19;;;4.20;72.78
19736;BME280;32064;49.310;8.646;2023-01-30T08:27:51;101009.22;;;4.23;73.05
19736;BME280;32064;49.310;8.646;2023-01-30T08:30:17;101023.16;;;4.22;73.84
19736;BME280;32064;49.310;8.646;2023-01-30T08:32:43;101028.25;;;4.25;73.56
19736;BME280;32064;49.310;8.646;2023-01-30T08:35:09;101030.88;;;4.23;73.69
19736;BME280;32064;49.310;8.646;2023-01-30T08:37:35;101022.28;;;4.21;72.36
19736;BME280;32064;49.310;8.646;2023-01-30T08:40:00;101017.75;;;4.26;72.84
19736;BME280;32064;49.310;8.646;2023-01-30T08:42:26;101015.22;;;4.25;73.66
19736;BME280;32064;49.310;8.646;2023-01-30T08:44:51;101015.13;;;4.28;73.88
19736;BME280;32064;49.310;8.646;2023-01-30T08:47:17;101014.16;;;4.31;72.94
19736;BME280;32064;49.310;8.646;2023-01-30T08:49:43;101008.00;;;4.33;74.08
19736;BME280;32064;49.310;8.646;2023-01-30T08:52:09;101009.63;;;4.36;72.98
19736;BME280;32064;49.310;8.646;2023-01-30T08:54:34;100999.16;;;4.37;73.59
19736;BME280;32064;49.310;8.646;2023-01-30T08:56:59;100992.06;;;4.42;72.33
19736;BME280;32064;49.310;8.646;2023-01-30T08:59:25;101006.84;;;4.42;73.12
19736;BME280;32064;49.310;8.646;2023-01-30T09:01:50;101022.25;;;4.48;74.05
19736;BME280;32064;49.310;8.646;2023-01-30T09:04:16;101017.03;;;4.48;72.38
19736;BME280;32064;49.310;8.646;2023-01-30T09:06:41;101020.38;;;4.52;73.63
19736;BME280;32064;49.310;8.646;2023-01-30T09:09:07;101014.31;;;4.51;74.09
19736;BME280;32064;49.310;8.646;2023-01-30T09:11:32;101012.72;;;4.47;73.26
19736;BME280;32064;49.310;8.646;2023-01-30T09:13:57;101012.78;;;4.45;72.83
19736;BME280;32064;49.310;8.646;2023-01-30T09:16:23;101012.44;;;4.55;73.21
19736;BME280;32064;49.310;8.646;2023-01-30T09:18:48;101006.44;;;4.53;74.06
19736;BME280;32064;49.310;8.646;2023-01-30T09:21:14;101011.84;;;4.48;73.66
19736;BME280;32064;49.310;8.646;2023-01-30T09:23:40;101002.88;;;4.55;72.80
19736;BME280;32064;49.310;8.646;2023-01-30T09:26:05;100992.31;;;4.60;74.50
19736;BME280;32064;49.310;8.646;2023-01-30T09:28:31;101001.78;;;4.62;74.36
19736;BME280;32064;49.310;8.646;2023-01-30T09:30:58;100999.16;;;4.62;74.11
19736;BME280;32064;49.310;8.646;2023-01-30T09:33:23;100988.75;;;4.62;74.12
19736;BME280;32064;49.310;8.646;2023-01-30T09:35:49;100990.16;;;4.71;72.54
19736;BME280;32064;49.310;8.646;2023-01-30T09:38:15;100965.69;;;4.75;72.25
19736;BME280;32064;49.310;8.646;2023-01-30T09:41:06;100963.53;;;4.63;73.71
19736;BME280;32064;49.310;8.646;2023-01-30T09:47:08;100979.13;;;4.88;72.73
19736;BME280;32064;49.310;8.646;2023-01-30T09:55:26;100984.34;;;4.88;75.18
19736;BME280;32064;49.310;8.646;2023-01-30T09:57:56;100973.78;;;4.91;73.94
19736;BME280;32064;49.310;8.646;2023-01-30T10:00:35;100976.03;;;5.00;75.17
19736;BME280;32064;49.310;8.646;2023-01-30T10:05:43;100965.06;;;4.92;75.37
19736;BME280;32064;49.310;8.646;2023-01-30T10:10:49;100978.59;;;5.02;75.57
19736;BME280;32064;49.310;8.646;2023-01-30T10:19:25;100971.50;;;5.05;73.95
19736;BME280;32064;49.310;8.646;2023-01-30T10:22:03;100958.19;;;5.13;73.40
19736;BME280;32064;49.310;8.646;2023-01-30T10:24:50;100957.03;;;5.20;74.88
19736;BME280;32064;49.310;8.646;2023-01-30T10:27:20;100955.78;;;5.30;73.40
19736;BME280;32064;49.310;8.646;2023-01-30T10:29:54;100962.75;;;5.30;73.50
19736;BME280;32064;49.310;8.646;2023-01-30T10:32:43;100950.56;;;5.30;75.60
19736;BME280;32064;49.310;8.646;2023-01-30T10:35:22;100950.69;;;5.27;74.71
19736;BME280;32064;49.310;8.646;2023-01-30T10:41:02;100957.81;;;5.22;75.11
19736;BME280;32064;49.310;8.646;2023-01-30T10:43:37;100960.38;;;5.24;74.42
19736;BME280;32064;49.310;8.646;2023-01-30T10:48:51;100970.22;;;5.39;74.80
19736;BME280;32064;49.310;8.646;2023-01-30T10:56:46;100979.13;;;5.33;74.25
19736;BME280;32064;49.310;8.646;2023-01-30T11:02:03;100973.84;;;5.35;74.96
19736;BME280;32064;49.310;8.646;2023-01-30T11:07:15;100967.94;;;5.52;73.66
19736;BME280;32064;49.310;8.646;2023-01-30T11:09:46;100965.16;;;5.56;73.11
19736;BME280;32064;49.310;8.646;2023-01-30T11:12:12;100971.91;;;5.62;75.20
19736;BME280;32064;49.310;8.646;2023-01-30T11:14:57;100983.44;;;5.56;73.89
19736;BME280;32064;49.310;8.646;2023-01-30T11:17:35;100980.81;;;5.56;74.22
19736;BME280;32064;49.310;8.646;2023-01-30T11:20:15;100979.00;;;5.58;74.16
19736;BME280;32064;49.310;8.646;2023-01-30T11:22:49;100978.34;;;5.53;74.69
19736;BME280;32064;49.310;8.646;2023-01-30T11:25:20;100971.34;;;5.54;75.21
19736;BME280;32064;49.310;8.646;2023-01-30T11:28:04;100974.81;;;5.54;73.61
19736;BME280;32064;49.310;8.646;2023-01-30T11:30:35;100964.38;;;5.54;74.45
19736;BME280;32064;49.310;8.646;2023-01-30T11:33:07;100975.56;;;5.58;73.57
19736;BME280;32064;49.310;8.646;2023-01-30T11:35:41;100956.41;;;5.57;73.75
19736;BME280;32064;49.310;8.646;2023-01-30T11:38:19;100962.69;;;5.53;75.24
19736;BME280;32064;49.310;8.646;2023-01-30T11:40:45;100971.47;;;5.51;73.46
19736;BME280;32064;49.310;8.646;2023-01-30T11:43:12;100960.91;;;5.54;73.35
19736;BME280;32064;49.310;8.646;2023-01-30T11:45:45;100964.25;;;5.57;73.20
19736;BME280;32064;49.310;8.646;2023-01-30T11:48:25;100955.53;;;5.58;74.32
19736;BME280;32064;49.310;8.646;2023-01-30T11:50:57;100956.78;;;5.70;74.96
19736;BME280;32064;49.310;8.646;2023-01-30T11:53:33;100955.59;;;5.77;74.95
19736;BME280;32064;49.310;8.646;2023-01-30T11:56:13;100956.84;;;5.69;74.08
19736;BME280;32064;49.310;8.646;2023-01-30T11:58:41;100954.72;;;5.78;73.79
19736;BME280;32064;49.310;8.646;2023-01-30T12:01:13;100962.53;;;5.78;73.44
19736;BME280;32064;49.310;8.646;2023-01-30T12:03:46;100962.72;;;5.74;75.24
19736;BME280;32064;49.310;8.646;2023-01-30T12:06:24;100947.06;;;5.74;74.24
19736;BME280;32064;49.310;8.646;2023-01-30T12:08:53;100938.13;;;5.79;73.81
19736;BME280;32064;49.310;8.646;2023-01-30T12:13:49;100945.84;;;5.82;75.30
19736;BME280;32064;49.310;8.646;2023-01-30T12:16:21;100951.00;;;5.84;75.56
19736;BME280;32064;49.310;8.646;2023-01-30T12:21:50;100934.50;;;5.83;73.90
19736;BME280;32064;49.310;8.646;2023-01-30T12:24:24;100924.06;;;5.83;74.80
19736;BME280;32064;49.310;8.646;2023-01-30T12:26:57;100920.38;;;5.88;74.49
19736;BME280;32064;49.310;8.646;2023-01-30T12:29:40;100919.31;;;5.93;74.20
19736;BME280;32064;49.310;8.646;2023-01-30T12:32:13;100926.75;;;6.02;75.13
19736;BME280;32064;49.310;8.646;2023-01-30T12:34:40;100926.59;;;6.05;74.25
19736;BME280;32064;49.310;8.646;2023-01-30T12:43:28;100939.47;;;6.10;76.11
19736;BME280;32064;49.310;8.646;2023-01-30T12:48:58;100941.38;;;6.06;74.97
19736;BME280;32064;49.310;8.646;2023-01-30T12:51:56;100938.50;;;6.13;75.50
19736;BME280;32064;49.310;8.646;2023-01-30T12:54:53;100931.25;;;6.19;75.67
19736;BME280;32064;49.310;8.646;2023-01-30T13:09:35;100928.56;;;6.21;75.93
19736;BME280;32064;49.310;8.646;2023-01-30T13:12:17;100934.38;;;6.27;75.30
19736;BME280;32064;49.310;8.646;2023-01-30T13:17:37;100940.25;;;6.33;75.52
19736;BME280;32064;49.310;8.646;2023-01-30T13:22:39;100955.66;;;6.39;74.47
19736;BME280;32064;49.310;8.646;2023-01-30T13:27:50;100945.84;;;6.44;75.46
19736;BME280;32064;49.310;8.646;2023-01-30T13:30:17;100944.31;;;6.59;73.87
19736;BME280;32064;49.310;8.646;2023-01-30T13:32:46;100944.97;;;6.64;75.21
19736;BME280;32064;49.310;8.646;2023-01-30T13:35:19;100950.19;;;6.64;74.34
19736;BME280;32064;49.310;8.646;2023-01-30T13:37:47;100955.09;;;6.71;74.02
19736;BME280;32064;49.310;8.646;2023-01-30T13:40:25;100943.28;;;6.63;74.36
19736;BME280;32064;49.310;8.646;2023-01-30T13:42:55;100944.03;;;6.65;75.02
19736;BME280;32064;49.310;8.646;2023-01-30T13:45:25;100956.06;;;6.69;74.12
19736;BME280;32064;49.310;8.646;2023-01-30T13:51:07;100954.63;;;6.62;74.97
19736;BME280;32064;49.310;8.646;2023-01-30T13:56:35;100946.47;;;6.69;74.51
19736;BME280;32064;49.310;8.646;2023-01-30T14:07:28;100965.13;;;6.81;74.98
19736;BME280;32064;49.310;8.646;2023-01-30T14:20:30;100953.91;;;6.97;75.04
19736;BME280;32064;49.310;8.646;2023-01-30T14:22:58;100963.94;;;7.07;74.94
19736;BME280;32064;49.310;8.646;2023-01-30T14:27:51;100982.94;;;7.10;74.14
19736;BME280;32064;49.310;8.646;2023-01-30T14:32:56;100993.63;;;7.25;73.84
19736;BME280;32064;49.310;8.646;2023-01-30T14:35:24;100990.00;;;7.27;74.31
19736;BME280;32064;49.310;8.646;2023-01-30T14:37:50;100991.88;;;7.25;74.10
19736;BME280;32064;49.310;8.646;2023-01-30T14:40:30;100991.09;;;7.23;74.63
19736;BME280;32064;49.310;8.646;2023-01-30T14:45:54;100992.41;;;7.32;74.14
19736;BME280;32064;49.310;8.646;2023-01-30T14:53:56;100987.03;;;7.35;73.96
19736;BME280;32064;49.310;8.646;2023-01-30T14:59:17;100978.00;;;7.23;73.87
19736;BME280;32064;49.310;8.646;2023-01-30T15:04:45;100987.03;;;7.16;73.91
19736;BME280;32064;49.310;8.646;2023-01-30T15:07:16;100976.66;;;7.14;74.32
19736;BME280;32064;49.310;8.646;2023-01-30T15:09:50;100987.13;;;7.14;73.47
19736;BME280;32064;49.310;8.646;2023-01-30T15:12:30;100977.44;;;7.16;73.42
19736;BME280;32064;49.310;8.646;2023-01-30T15:18:15;100970.09;;;7.06;75.01
19736;BME280;32064;49.310;8.646;2023-01-30T15:26:32;100998.41;;;6.96;74.76
19736;BME280;32064;49.310;8.646;2023-01-30T15:29:24;101007.19;;;6.95;74.76
19736;BME280;32064;49.310;8.646;2023-01-30T15:32:12;101001.69;;;7.01;74.49
19736;BME280;32064;49.310;8.646;2023-01-30T15:34:51;101009.88;;;6.93;75.62
19736;BME280;32064;49.310;8.646;2023-01-30T15:50:50;101036.28;;;6.68;75.96
19736;BME280;32064;49.310;8.646;2023-01-30T15:53:27;101033.41;;;6.54;75.93